createdAt,value
2023-01-09T00:00:28.567Z,0
2023-01-09T00:02:08.347Z,0
2023-01-09T00:03:48.083Z,0
2023-01-09T00:05:27.843Z,0
2023-01-09T00:07:07.607Z,0
2023-01-09T00:08:47.363Z,0
2023-01-09T00:10:27.135Z,0
2023-01-09T00:12:06.902Z,0
2023-01-09T00:13:46.663Z,0
2023-01-09T00:15:26.422Z,0
2023-01-09T00:17:06.185Z,0
2023-01-09T00:18:45.953Z,0
2023-01-09T00:20:25.727Z,0
2023-01-09T00:22:05.495Z,0
2023-01-09T00:23:45.254Z,0
2023-01-09T00:25:25.017Z,0
2023-01-09T00:27:04.781Z,0
2023-01-09T00:28:44.541Z,0
2023-01-09T00:30:24.303Z,0
2023-01-09T00:32:04.146Z,0
2023-01-09T00:33:43.836Z,0
2023-01-09T00:35:23.604Z,0
2023-01-09T00:37:03.353Z,0
2023-01-09T00:38:43.133Z,0
2023-01-09T00:40:22.894Z,0
2023-01-09T00:42:02.650Z,0
2023-01-09T00:43:42.417Z,0
2023-01-09T00:45:22.179Z,0
2023-01-09T00:47:01.943Z,0
2023-01-09T00:48:41.732Z,0
2023-01-09T00:50:21.470Z,0
2023-01-09T00:52:01.243Z,0
2023-01-09T00:53:41.133Z,0
2023-01-09T00:55:20.759Z,0
2023-01-09T00:57:00.581Z,0
2023-01-09T00:58:40.297Z,0
2023-01-09T01:00:20.067Z,0
2023-01-09T01:01:59.878Z,0
2023-01-09T01:03:39.594Z,0
2023-01-09T01:05:19.359Z,0
2023-01-09T01:06:59.111Z,0
2023-01-09T01:10:18.649Z,0
2023-01-09T01:11:58.416Z,0
2023-01-09T01:13:38.171Z,0
2023-01-09T01:15:17.927Z,0
2023-01-09T01:16:57.704Z,0
2023-01-09T01:18:37.461Z,0
2023-01-09T01:20:17.225Z,0
2023-01-09T01:21:57.021Z,0
2023-01-09T01:23:36.765Z,0
2023-01-09T01:25:16.592Z,0
2023-01-09T01:26:56.322Z,0
2023-01-09T01:28:36.064Z,0
2023-01-09T01:30:15.816Z,0
2023-01-09T01:31:55.593Z,0
2023-01-09T01:33:35.356Z,0
2023-01-09T01:35:15.106Z,0
2023-01-09T01:36:54.872Z,0
2023-01-09T01:38:34.657Z,0
2023-01-09T01:40:14.443Z,0
2023-01-09T01:41:54.184Z,0
2023-01-09T01:43:33.942Z,0
2023-01-09T01:45:13.762Z,0
2023-01-09T01:46:53.454Z,0
2023-01-09T01:48:33.241Z,0
2023-01-09T01:50:12.992Z,0
2023-01-09T01:51:52.764Z,0
2023-01-09T01:53:32.539Z,0
2023-01-09T01:55:12.274Z,0
2023-01-09T01:56:52.046Z,0
2023-01-09T01:58:31.845Z,0
2023-01-09T02:00:11.618Z,0
2023-01-09T02:01:51.338Z,0
2023-01-09T02:03:31.100Z,0
2023-01-09T02:05:10.865Z,0
2023-01-09T02:06:50.676Z,0
2023-01-09T02:08:30.399Z,0
2023-01-09T02:10:10.172Z,0
2023-01-09T02:11:49.926Z,0
2023-01-09T02:13:29.704Z,0
2023-01-09T02:15:09.458Z,0
2023-01-09T02:16:49.212Z,0
2023-01-09T02:18:28.989Z,0
2023-01-09T02:20:08.745Z,0
2023-01-09T02:21:48.509Z,0
2023-01-09T02:23:28.285Z,0
2023-01-09T02:25:08.046Z,0
2023-01-09T02:26:47.802Z,0
2023-01-09T02:28:27.566Z,0
2023-01-09T02:30:07.328Z,0
2023-01-09T02:31:47.098Z,0
2023-01-09T02:33:26.867Z,0
2023-01-09T02:35:06.636Z,0
2023-01-09T02:36:46.403Z,0
2023-01-09T02:38:26.229Z,0
2023-01-09T02:40:06.040Z,0
2023-01-09T02:41:45.681Z,0
2023-01-09T02:43:25.440Z,0
2023-01-09T02:45:05.218Z,0
2023-01-09T02:46:44.979Z,0
2023-01-09T02:48:24.737Z,0
2023-01-09T02:50:04.522Z,0
2023-01-09T02:51:44.272Z,0
2023-01-09T02:53:24.024Z,0
2023-01-09T02:55:03.853Z,0
2023-01-09T02:56:43.557Z,0
2023-01-09T02:58:23.329Z,0
2023-01-09T03:00:03.101Z,0
2023-01-09T03:01:42.845Z,0
2023-01-09T03:03:22.682Z,0
2023-01-09T03:05:02.382Z,0
2023-01-09T03:06:42.140Z,0
2023-01-09T03:08:21.903Z,0
2023-01-09T03:10:01.672Z,0
2023-01-09T03:11:41.444Z,0
2023-01-09T03:13:21.233Z,0
2023-01-09T03:15:01.020Z,0
2023-01-09T03:16:40.729Z,0
2023-01-09T03:18:20.491Z,0
2023-01-09T03:20:00.292Z,0
2023-01-09T03:21:40.048Z,0
2023-01-09T03:23:19.824Z,0
2023-01-09T03:24:59.671Z,0
2023-01-09T03:26:39.408Z,0
2023-01-09T03:28:19.103Z,0
2023-01-09T03:29:58.860Z,0
2023-01-09T03:31:38.636Z,0
2023-01-09T03:33:18.397Z,0
2023-01-09T03:34:58.126Z,0
2023-01-09T03:36:37.897Z,0
2023-01-09T03:38:17.738Z,0
2023-01-09T03:39:57.503Z,0
2023-01-09T03:41:37.196Z,0
2023-01-09T03:43:16.976Z,0
2023-01-09T03:44:56.740Z,0
2023-01-09T03:46:36.497Z,0
2023-01-09T03:48:16.261Z,0
2023-01-09T03:49:56.154Z,0
2023-01-09T03:51:35.834Z,0
2023-01-09T03:53:15.549Z,0
2023-01-09T03:54:55.308Z,0
2023-01-09T03:56:35.143Z,0
2023-01-09T03:58:14.843Z,0
2023-01-09T03:59:54.614Z,0
2023-01-09T04:01:34.370Z,0
2023-01-09T04:03:14.120Z,0
2023-01-09T04:04:53.971Z,0
2023-01-09T04:06:33.670Z,0
2023-01-09T04:08:13.412Z,0
2023-01-09T04:09:53.184Z,0
2023-01-09T04:11:32.954Z,0
2023-01-09T04:13:12.734Z,0
2023-01-09T04:14:52.485Z,0
2023-01-09T04:16:32.266Z,0
2023-01-09T04:18:12.055Z,0
2023-01-09T04:19:51.766Z,0
2023-01-09T04:21:31.544Z,0
2023-01-09T04:23:11.299Z,0
2023-01-09T04:24:51.082Z,0
2023-01-09T04:26:30.895Z,0
2023-01-09T04:28:10.591Z,0
2023-01-09T04:29:50.362Z,0
2023-01-09T04:31:30.127Z,0
2023-01-09T04:33:09.992Z,0
2023-01-09T04:34:49.648Z,0
2023-01-09T04:36:29.409Z,0
2023-01-09T04:38:09.187Z,0
2023-01-09T04:39:48.949Z,0
2023-01-09T04:41:28.704Z,0
2023-01-09T04:43:08.463Z,0
2023-01-09T04:44:48.237Z,0
2023-01-09T04:46:28.003Z,0
2023-01-09T04:48:07.781Z,0
2023-01-09T04:49:47.519Z,0
2023-01-09T04:51:27.294Z,0
2023-01-09T04:53:07.061Z,0
2023-01-09T04:54:46.833Z,0
2023-01-09T04:56:26.583Z,0
2023-01-09T04:58:06.348Z,0
2023-01-09T04:59:46.120Z,0
2023-01-09T05:01:25.905Z,0
2023-01-09T05:03:05.641Z,0
2023-01-09T05:04:45.405Z,0
2023-01-09T05:06:25.212Z,0
2023-01-09T05:08:04.936Z,0
2023-01-09T05:09:44.729Z,0
2023-01-09T05:11:24.462Z,0
2023-01-09T05:13:04.224Z,0
2023-01-09T05:14:44.001Z,0
2023-01-09T05:16:23.754Z,0
2023-01-09T05:18:03.602Z,0
2023-01-09T05:19:43.305Z,0
2023-01-09T05:21:23.053Z,0
2023-01-09T05:23:02.879Z,0
2023-01-09T05:24:42.587Z,0
2023-01-09T05:26:22.340Z,0
2023-01-09T05:28:02.109Z,0
2023-01-09T05:29:41.861Z,0
2023-01-09T05:31:21.722Z,0
2023-01-09T05:33:01.396Z,0
2023-01-09T05:34:41.155Z,0
2023-01-09T05:36:20.971Z,0
2023-01-09T05:38:00.762Z,0
2023-01-09T05:39:40.450Z,0
2023-01-09T05:41:20.229Z,0
2023-01-09T05:42:59.991Z,0
2023-01-09T05:44:39.825Z,0
2023-01-09T05:46:19.505Z,0
2023-01-09T05:47:59.285Z,0
2023-01-09T05:49:39.045Z,0
2023-01-09T05:51:18.816Z,0
2023-01-09T05:52:58.625Z,0
2023-01-09T05:54:38.385Z,0
2023-01-09T05:56:18.091Z,0
2023-01-09T05:57:57.879Z,0
2023-01-09T05:59:37.668Z,0
2023-01-09T06:01:17.401Z,0
2023-01-09T06:02:57.156Z,0
2023-01-09T06:04:36.918Z,0
2023-01-09T06:06:16.693Z,0
2023-01-09T06:07:56.461Z,0
2023-01-09T06:09:36.219Z,0
2023-01-09T06:11:15.980Z,0
2023-01-09T06:12:55.746Z,0
2023-01-09T06:14:35.506Z,0
2023-01-09T06:16:15.272Z,0
2023-01-09T06:17:55.025Z,0
2023-01-09T06:19:34.786Z,0
2023-01-09T06:21:14.601Z,0
2023-01-09T06:22:54.326Z,0
2023-01-09T06:24:34.086Z,0
2023-01-09T06:26:13.849Z,0
2023-01-09T06:27:53.626Z,0
2023-01-09T06:29:33.400Z,0
2023-01-09T06:31:13.156Z,0
2023-01-09T06:32:52.969Z,0
2023-01-09T06:34:32.670Z,0
2023-01-09T06:36:12.429Z,0
2023-01-09T06:37:52.259Z,0
2023-01-09T06:39:32.017Z,0
2023-01-09T06:41:11.724Z,0
2023-01-09T06:42:51.489Z,0
2023-01-09T06:44:31.255Z,0
2023-01-09T06:46:11.056Z,0
2023-01-09T06:47:50.788Z,0
2023-01-09T06:49:30.569Z,0
2023-01-09T06:51:10.322Z,0
2023-01-09T06:52:50.115Z,0
2023-01-09T06:54:29.852Z,0
2023-01-09T06:56:09.628Z,0
2023-01-09T06:57:49.402Z,0
2023-01-09T06:59:29.137Z,0
2023-01-09T07:01:08.912Z,0
2023-01-09T07:02:48.665Z,0
2023-01-09T07:04:28.431Z,0
2023-01-09T07:06:08.198Z,0
2023-01-09T07:07:47.961Z,0
2023-01-09T07:09:27.729Z,0
2023-01-09T07:11:07.512Z,0
2023-01-09T07:12:47.305Z,0
2023-01-09T07:14:27.104Z,1.28
2023-01-09T07:16:06.796Z,0
2023-01-09T07:17:46.582Z,0
2023-01-09T07:19:26.404Z,0
2023-01-09T07:21:06.090Z,0
2023-01-09T07:22:45.831Z,1.53
2023-01-09T07:24:25.704Z,1.28
2023-01-09T07:26:05.363Z,0
2023-01-09T07:27:45.152Z,1.02
2023-01-09T07:29:24.914Z,0
2023-01-09T07:31:04.652Z,0
2023-01-09T07:32:44.462Z,0
2023-01-09T07:34:24.279Z,0.25
2023-01-09T07:36:03.963Z,1.79
2023-01-09T07:37:43.750Z,0
2023-01-09T07:39:23.599Z,1.79
2023-01-09T07:41:03.243Z,0
2023-01-09T07:42:43.006Z,1.02
2023-01-09T07:44:22.816Z,0
2023-01-09T07:46:02.608Z,0.51
2023-01-09T07:47:42.304Z,0
2023-01-09T07:49:22.094Z,0
2023-01-09T07:51:01.893Z,0
2023-01-09T07:52:41.637Z,0
2023-01-09T07:56:01.132Z,2.56
2023-01-09T07:57:40.904Z,0.77
2023-01-09T07:59:20.732Z,2.31
2023-01-09T08:01:00.488Z,0
2023-01-09T08:02:40.206Z,1.79
2023-01-09T08:04:19.957Z,0
2023-01-09T08:05:59.710Z,1.27
2023-01-09T08:07:39.497Z,3.33
2023-01-09T08:09:19.271Z,2.31
2023-01-09T08:10:59.072Z,0.25
2023-01-09T08:12:38.856Z,0
2023-01-09T08:14:18.596Z,4.11
2023-01-09T08:15:58.418Z,4.37
2023-01-09T08:17:38.088Z,0.77
2023-01-09T08:19:17.850Z,3.08
2023-01-09T08:20:57.622Z,2.83
2023-01-09T08:24:17.150Z,2.06
2023-01-09T08:25:56.937Z,0
2023-01-09T08:27:36.706Z,5.15
2023-01-09T08:29:16.455Z,5.93
2023-01-09T08:30:56.277Z,4.13
2023-01-09T08:32:35.997Z,5.68
2023-01-09T08:34:15.909Z,6.47
2023-01-09T08:35:55.542Z,9.33
2023-01-09T08:37:35.305Z,7.79
2023-01-09T08:39:15.079Z,8.57
2023-01-09T08:40:54.856Z,3.37
2023-01-09T08:42:34.632Z,5.72
2023-01-09T08:44:14.377Z,4.42
2023-01-09T08:45:54.152Z,7.28
2023-01-09T08:47:33.936Z,7.29
2023-01-09T08:49:13.716Z,4.16
2023-01-09T08:50:53.462Z,8.87
2023-01-09T08:52:33.249Z,7.56
2023-01-09T08:54:13.017Z,3.38
2023-01-09T08:55:52.808Z,1.56
2023-01-09T08:57:32.543Z,2.86
2023-01-09T08:59:12.314Z,3.39
2023-01-09T09:00:52.094Z,8.09
2023-01-09T09:02:31.868Z,5.75
2023-01-09T09:04:11.640Z,4.17
2023-01-09T09:05:51.399Z,5.75
2023-01-09T09:07:31.166Z,5.23
2023-01-09T09:09:10.961Z,6.79
2023-01-09T09:10:50.702Z,3.65
2023-01-09T09:12:30.533Z,2.87
2023-01-09T09:14:10.271Z,4.44
2023-01-09T09:15:50.017Z,3.39
2023-01-09T09:17:29.795Z,2.87
2023-01-09T09:19:09.555Z,4.17
2023-01-09T09:20:49.321Z,2.87
2023-01-09T09:22:29.103Z,4.96
2023-01-09T09:24:08.864Z,3.65
2023-01-09T09:25:48.641Z,3.13
2023-01-09T09:27:28.431Z,4.42
2023-01-09T09:29:08.177Z,3.91
2023-01-09T09:30:47.938Z,5.49
2023-01-09T09:32:27.707Z,6.28
2023-01-09T09:34:07.494Z,8.39
2023-01-09T09:35:47.256Z,7.87
2023-01-09T09:37:27.040Z,7.88
2023-01-09T09:39:06.822Z,9.18
2023-01-09T09:40:46.579Z,7.35
2023-01-09T09:42:26.391Z,6.57
2023-01-09T09:44:06.085Z,10.54
2023-01-09T09:45:45.879Z,11.09
2023-01-09T09:47:25.877Z,10.02
2023-01-09T09:49:05.408Z,8.97
2023-01-09T09:50:45.224Z,6.6
2023-01-09T09:52:24.948Z,5.8
2023-01-09T09:54:04.785Z,11.11
2023-01-09T09:55:44.482Z,12.47
2023-01-09T09:57:24.264Z,13.57
2023-01-09T09:59:04.045Z,16.81
2023-01-09T10:00:43.808Z,14.42
2023-01-09T10:02:23.565Z,11.73
2023-01-09T10:04:03.340Z,11.48
2023-01-09T10:05:43.114Z,1.59
2023-01-09T10:07:22.876Z,16.39
2023-01-09T10:09:02.677Z,11.25
2023-01-09T10:10:42.418Z,14.77
2023-01-09T10:12:22.208Z,15.61
2023-01-09T10:14:01.979Z,21.56
2023-01-09T10:15:41.737Z,18.12
2023-01-09T10:17:21.499Z,21.17
2023-01-09T10:19:01.262Z,20.4
2023-01-09T10:20:41.113Z,19.6
2023-01-09T10:22:20.851Z,17.43
2023-01-09T10:24:00.709Z,19.36
2023-01-09T10:25:40.343Z,18.01
2023-01-09T10:27:20.243Z,15.27
2023-01-09T10:28:59.911Z,12.52
2023-01-09T10:30:39.652Z,14.71
2023-01-09T10:32:19.429Z,13.08
2023-01-09T10:33:59.199Z,11.7
2023-01-09T10:35:38.979Z,8.68
2023-01-09T10:37:18.755Z,6.5
2023-01-09T10:38:58.535Z,5.13
2023-01-09T10:40:38.290Z,5.4
2023-01-09T10:42:18.056Z,6.75
2023-01-09T10:43:57.818Z,7.57
2023-01-09T10:45:37.600Z,13.01
2023-01-09T10:47:17.369Z,10.3
2023-01-09T10:48:57.128Z,10.03
2023-01-09T10:50:36.907Z,9.2
2023-01-09T10:52:16.684Z,7.85
2023-01-09T10:53:56.575Z,8.12
2023-01-09T10:55:36.212Z,15.5
2023-01-09T10:57:15.985Z,17.18
2023-01-09T10:58:55.864Z,18.03
2023-01-09T11:00:35.622Z,21.96
2023-01-09T11:02:15.401Z,23.41
2023-01-09T11:03:55.134Z,22.88
2023-01-09T11:05:34.838Z,20.84
2023-01-09T11:07:14.608Z,38.48
2023-01-09T11:08:54.382Z,41.18
2023-01-09T11:10:34.139Z,38.06
2023-01-09T11:12:13.920Z,46.51
2023-01-09T11:13:53.725Z,44.84
2023-01-09T11:15:33.452Z,42.18
2023-01-09T11:17:13.217Z,41.27
2023-01-09T11:18:53.010Z,39.22
2023-01-09T11:20:32.837Z,38.63
2023-01-09T11:22:12.543Z,37.43
2023-01-09T11:23:52.313Z,37.14
2023-01-09T11:25:32.067Z,27.82
2023-01-09T11:27:11.847Z,13.77
2023-01-09T11:28:51.698Z,0
2023-01-09T11:30:31.557Z,18.5
2023-01-09T11:32:11.213Z,13.67
2023-01-09T11:33:50.937Z,14.76
2023-01-09T11:35:30.690Z,18.12
2023-01-09T11:37:10.469Z,19.27
2023-01-09T11:38:50.235Z,14.47
2023-01-09T11:40:30.004Z,11.1
2023-01-09T11:42:09.777Z,9.96
2023-01-09T11:43:49.558Z,9.66
2023-01-09T11:45:29.325Z,10.48
2023-01-09T11:47:09.085Z,15.22
2023-01-09T11:48:48.865Z,16.07
2023-01-09T11:50:28.644Z,13.56
2023-01-09T11:52:08.397Z,15.22
2023-01-09T11:53:48.177Z,13
2023-01-09T11:55:27.937Z,11.88
2023-01-09T11:57:07.712Z,13.24
2023-01-09T11:58:47.489Z,17.18
2023-01-09T12:00:27.280Z,18.32
2023-01-09T12:02:07.030Z,16.08
2023-01-09T12:03:46.787Z,15.53
2023-01-09T12:05:26.565Z,19.19
2023-01-09T12:07:06.359Z,21.49
2023-01-09T12:08:46.108Z,20.65
2023-01-09T12:10:25.877Z,22.37
2023-01-09T12:12:05.756Z,29.14
2023-01-09T12:13:45.463Z,35.12
2023-01-09T12:15:25.302Z,31.62
2023-01-09T12:17:04.946Z,30.6
2023-01-09T12:18:44.764Z,31.53
2023-01-09T12:20:24.500Z,30.94
2023-01-09T12:22:04.254Z,30.94
2023-01-09T12:23:44.032Z,30.78
2023-01-09T12:25:23.797Z,30.65
2023-01-09T12:27:03.575Z,30.63
2023-01-09T12:28:43.367Z,30.05
2023-01-09T12:30:23.129Z,30.04
2023-01-09T12:32:02.887Z,31.21
2023-01-09T12:33:42.646Z,30.92
2023-01-09T12:35:22.439Z,30.62
2023-01-09T12:37:02.189Z,30.62
2023-01-09T12:38:41.963Z,31.22
2023-01-09T12:40:21.769Z,31.8
2023-01-09T12:42:01.507Z,31.79
2023-01-09T12:43:41.273Z,31.23
2023-01-09T12:45:21.057Z,31.2
2023-01-09T12:47:00.847Z,31.79
2023-01-09T12:48:40.597Z,31.47
2023-01-09T12:50:20.377Z,33.05
2023-01-09T12:52:00.155Z,31.79
2023-01-09T12:53:39.899Z,33.84
2023-01-09T12:55:19.664Z,32.39
2023-01-09T12:56:59.459Z,32.66
2023-01-09T12:58:39.222Z,32.96
2023-01-09T13:00:18.984Z,32.09
2023-01-09T13:01:58.753Z,32.96
2023-01-09T13:03:38.532Z,31.91
2023-01-09T13:05:18.295Z,33.84
2023-01-09T13:06:58.061Z,33.25
2023-01-09T13:08:37.836Z,32.65
2023-01-09T13:10:17.613Z,33.55
2023-01-09T13:11:57.370Z,32.66
2023-01-09T13:13:37.146Z,32.93
2023-01-09T13:15:16.930Z,32.23
2023-01-09T13:16:56.701Z,32.93
2023-01-09T13:18:36.453Z,34.53
2023-01-09T13:20:16.232Z,33.83
2023-01-09T13:21:55.999Z,33.24
2023-01-09T13:23:35.763Z,34.41
2023-01-09T13:25:15.538Z,33.55
2023-01-09T13:26:55.316Z,33.56
2023-01-09T13:28:35.104Z,33.53
2023-01-09T13:30:14.848Z,33.52
2023-01-09T13:31:54.616Z,34.12
2023-01-09T13:33:34.384Z,33.82
2023-01-09T13:35:14.163Z,34.12
2023-01-09T13:36:53.932Z,33.83
2023-01-09T13:38:33.688Z,33.83
2023-01-09T13:40:13.469Z,33.81
2023-01-09T13:41:53.229Z,33.83
2023-01-09T13:43:33.015Z,34.12
2023-01-09T13:45:12.911Z,34.43
2023-01-09T13:46:52.551Z,34.41
2023-01-09T13:48:32.310Z,34.39
2023-01-09T13:50:12.191Z,33.79
2023-01-09T13:51:51.864Z,32.5
2023-01-09T13:53:31.635Z,30.85
2023-01-09T13:55:11.401Z,35.81
2023-01-09T13:56:51.180Z,29.35
2023-01-09T13:58:30.954Z,33.98
2023-01-09T14:00:10.779Z,34.11
2023-01-09T14:01:50.489Z,33.41
2023-01-09T14:03:30.343Z,33.48
2023-01-09T14:05:10.020Z,14.71
2023-01-09T14:06:49.797Z,8.68
2023-01-09T14:08:29.561Z,10.91
2023-01-09T14:10:09.339Z,6.96
2023-01-09T14:11:49.116Z,7.22
2023-01-09T14:13:28.873Z,5.54
2023-01-09T14:15:08.654Z,5.24
2023-01-09T14:16:48.463Z,6.9
2023-01-09T14:18:28.178Z,7.45
2023-01-09T14:20:07.962Z,6.89
2023-01-09T14:21:47.734Z,5.5
2023-01-09T14:23:27.506Z,6.04
2023-01-09T14:25:07.264Z,5.21
2023-01-09T14:26:47.030Z,4.92
2023-01-09T14:28:26.851Z,4.92
2023-01-09T14:30:06.733Z,3
2023-01-09T14:31:46.340Z,1.9
2023-01-09T14:33:26.113Z,0.27
2023-01-09T14:35:05.896Z,1.08
2023-01-09T14:36:45.650Z,1.62
2023-01-09T14:38:25.434Z,1.35
2023-01-09T14:40:05.199Z,1.08
2023-01-09T14:41:44.951Z,0.54
2023-01-09T14:43:24.734Z,0.26
2023-01-09T14:45:04.502Z,0.52
2023-01-09T14:46:44.260Z,0.26
2023-01-09T14:48:24.045Z,0.26
2023-01-09T14:50:03.822Z,0.8
2023-01-09T14:51:43.580Z,0.52
2023-01-09T14:53:23.350Z,0.26
2023-01-09T14:55:03.121Z,0.52
2023-01-09T14:56:42.916Z,0
2023-01-09T14:58:22.663Z,0
2023-01-09T15:00:02.460Z,0
2023-01-09T15:01:42.191Z,0
2023-01-09T15:03:21.963Z,0
2023-01-09T15:05:01.778Z,0
2023-01-09T15:06:41.611Z,0
2023-01-09T15:08:21.417Z,0
2023-01-09T15:10:01.129Z,0
2023-01-09T15:11:40.781Z,0
2023-01-09T15:13:20.555Z,0
2023-01-09T15:15:00.341Z,0
2023-01-09T15:16:40.093Z,0
2023-01-09T15:18:19.860Z,0
2023-01-09T15:19:59.631Z,0
2023-01-09T15:21:39.437Z,0
2023-01-09T15:23:19.187Z,0
2023-01-09T15:24:59.196Z,0
2023-01-09T15:26:38.829Z,0
2023-01-09T15:28:18.468Z,0
2023-01-09T15:29:58.252Z,0
2023-01-09T15:31:37.991Z,0
2023-01-09T15:33:17.772Z,0
2023-01-09T15:34:57.526Z,0
2023-01-09T15:36:37.297Z,0
2023-01-09T15:38:17.084Z,0
2023-01-09T15:39:56.899Z,0
2023-01-09T15:41:36.607Z,0
2023-01-09T15:43:16.364Z,0
2023-01-09T15:44:56.169Z,0
2023-01-09T15:46:35.926Z,0
2023-01-09T15:48:15.706Z,0
2023-01-09T15:49:55.457Z,0
2023-01-09T15:51:35.284Z,0
2023-01-09T15:53:14.965Z,0
2023-01-09T15:54:54.745Z,0
2023-01-09T15:56:34.526Z,0
2023-01-09T15:58:14.273Z,0
2023-01-09T15:59:54.053Z,0
2023-01-09T16:01:33.803Z,0
2023-01-09T16:03:13.718Z,0
2023-01-09T16:04:53.353Z,0
2023-01-09T16:06:33.157Z,0
2023-01-09T16:08:12.882Z,0
2023-01-09T16:09:52.649Z,0
2023-01-09T16:11:32.438Z,0
2023-01-09T16:13:12.168Z,0
2023-01-09T16:14:51.957Z,0
2023-01-09T16:16:31.708Z,0
2023-01-09T16:18:11.483Z,0
2023-01-09T16:19:51.243Z,0
2023-01-09T16:21:31.077Z,0
2023-01-09T16:23:10.962Z,0
2023-01-09T16:24:50.708Z,0
2023-01-09T16:26:30.321Z,0
2023-01-09T16:28:10.091Z,0
2023-01-09T16:29:49.872Z,0
2023-01-09T16:31:29.614Z,0
2023-01-09T16:33:09.388Z,0
2023-01-09T16:34:49.160Z,0
2023-01-09T16:36:28.935Z,0
2023-01-09T16:38:08.694Z,0
2023-01-09T16:39:48.464Z,0
2023-01-09T16:41:28.238Z,0
2023-01-09T16:43:07.992Z,0
2023-01-09T16:44:47.764Z,0
2023-01-09T16:46:27.526Z,0
2023-01-09T16:48:07.304Z,0
2023-01-09T16:49:47.069Z,0
2023-01-09T16:51:26.827Z,0
2023-01-09T16:53:06.615Z,0
2023-01-09T16:54:46.376Z,0
2023-01-09T16:56:26.148Z,0
2023-01-09T16:58:05.893Z,0
2023-01-09T16:59:45.668Z,0
2023-01-09T17:01:25.478Z,0
2023-01-09T17:03:05.204Z,0
2023-01-09T17:04:44.971Z,0
2023-01-09T17:06:24.745Z,0
2023-01-09T17:08:04.507Z,0
2023-01-09T17:09:44.286Z,0
2023-01-09T17:11:24.043Z,0
2023-01-09T17:13:03.815Z,0
2023-01-09T17:14:43.586Z,0
2023-01-09T17:16:23.335Z,0
2023-01-09T17:18:03.108Z,0
2023-01-09T17:19:42.891Z,0
2023-01-09T17:21:22.647Z,0
2023-01-09T17:23:02.404Z,0
2023-01-09T17:24:42.182Z,0
2023-01-09T17:26:21.947Z,0
2023-01-09T17:28:01.717Z,0
2023-01-09T17:29:41.598Z,0
2023-01-09T17:31:21.239Z,0
2023-01-09T17:33:01.014Z,0
2023-01-09T17:34:40.784Z,0
2023-01-09T17:36:20.548Z,0
2023-01-09T17:38:00.322Z,0
2023-01-09T17:39:40.086Z,0
2023-01-09T17:41:19.840Z,0
2023-01-09T17:42:59.612Z,0
2023-01-09T17:44:39.380Z,0
2023-01-09T17:46:19.239Z,0
2023-01-09T17:47:58.926Z,0
2023-01-09T17:49:38.695Z,0
2023-01-09T17:51:18.456Z,0
2023-01-09T17:52:58.216Z,0
2023-01-09T17:54:37.987Z,0
2023-01-09T17:56:17.756Z,0
2023-01-09T17:57:57.517Z,0
2023-01-09T17:59:37.291Z,0
2023-01-09T18:01:17.060Z,0
2023-01-09T18:02:56.844Z,0
2023-01-09T18:04:36.595Z,0
2023-01-09T18:06:16.364Z,0
2023-01-09T18:07:56.114Z,0
2023-01-09T18:09:35.888Z,0
2023-01-09T18:11:15.670Z,0
2023-01-09T18:12:55.418Z,0
2023-01-09T18:14:35.202Z,0
2023-01-09T18:16:14.974Z,0
2023-01-09T18:17:54.751Z,0
2023-01-09T18:19:34.483Z,0
2023-01-09T18:21:14.266Z,0
2023-01-09T18:22:54.029Z,0
2023-01-09T18:24:33.798Z,0
2023-01-09T18:26:13.572Z,0
2023-01-09T18:27:53.332Z,0
2023-01-09T18:29:33.107Z,0
2023-01-09T18:31:12.865Z,0
2023-01-09T18:32:52.630Z,0
2023-01-09T18:34:32.397Z,0
2023-01-09T18:36:12.172Z,0
2023-01-09T18:37:51.936Z,0
2023-01-09T18:39:31.703Z,0
2023-01-09T18:41:11.477Z,0
2023-01-09T18:42:51.232Z,0
2023-01-09T18:44:31.037Z,0
2023-01-09T18:46:10.769Z,0
2023-01-09T18:47:50.540Z,0
2023-01-09T18:49:30.314Z,0
2023-01-09T18:51:10.075Z,0
2023-01-09T18:52:49.828Z,0
2023-01-09T18:54:29.661Z,0
2023-01-09T18:56:09.387Z,0
2023-01-09T18:57:49.154Z,0
2023-01-09T18:59:28.907Z,0
2023-01-09T19:01:08.694Z,0
2023-01-09T19:02:48.443Z,0
2023-01-09T19:04:28.210Z,0
2023-01-09T19:06:07.998Z,0
2023-01-09T19:07:47.763Z,0
2023-01-09T19:09:27.505Z,0
2023-01-09T19:11:07.299Z,0
2023-01-09T19:12:47.081Z,0
2023-01-09T19:14:26.821Z,0
2023-01-09T19:16:06.591Z,0
2023-01-09T19:17:46.358Z,0
2023-01-09T19:19:26.119Z,0
2023-01-09T19:21:05.891Z,0
2023-01-09T19:22:45.678Z,0
2023-01-09T19:24:25.438Z,0
2023-01-09T19:26:05.197Z,0
2023-01-09T19:27:45.022Z,0
2023-01-09T19:29:24.742Z,0
2023-01-09T19:31:04.494Z,0
2023-01-09T19:32:44.267Z,0
2023-01-09T19:34:24.026Z,0
2023-01-09T19:36:03.787Z,0
2023-01-09T19:37:43.636Z,0
2023-01-09T19:39:23.335Z,0
2023-01-09T19:41:03.111Z,0
2023-01-09T19:42:42.852Z,0
2023-01-09T19:44:22.634Z,0
2023-01-09T19:46:02.397Z,0
2023-01-09T19:47:42.172Z,0
2023-01-09T19:49:21.993Z,0
2023-01-09T19:52:41.497Z,0
2023-01-09T19:54:21.231Z,0
2023-01-09T19:56:01.013Z,0
2023-01-09T19:59:20.539Z,0
2023-01-09T20:02:40.078Z,0
2023-01-09T20:05:59.607Z,0
2023-01-09T20:09:19.156Z,0
2023-01-09T20:12:38.678Z,0
2023-01-09T20:15:58.215Z,0
2023-01-09T20:19:17.753Z,0
2023-01-09T20:22:37.288Z,0
2023-01-09T20:25:56.805Z,0
2023-01-09T20:27:36.581Z,0
2023-01-09T20:29:16.337Z,0
2023-01-09T20:30:56.117Z,0
2023-01-09T20:32:35.874Z,0
2023-01-09T20:34:15.658Z,0
2023-01-09T20:35:55.419Z,0
2023-01-09T20:37:35.191Z,0
2023-01-09T20:39:14.961Z,0
2023-01-09T20:40:54.722Z,0
2023-01-09T20:42:34.528Z,0
2023-01-09T20:44:14.251Z,0
2023-01-09T20:45:54.018Z,0
2023-01-09T20:47:33.798Z,0
2023-01-09T20:49:13.568Z,0
2023-01-09T20:50:53.321Z,0
2023-01-09T20:52:33.101Z,0
2023-01-09T20:54:12.872Z,0
2023-01-09T20:55:52.622Z,0
2023-01-09T20:57:32.395Z,0
2023-01-09T20:59:12.164Z,0
2023-01-09T21:00:51.921Z,0
2023-01-09T21:02:31.683Z,0
2023-01-09T21:04:11.455Z,0
2023-01-09T21:05:51.423Z,0
2023-01-09T21:07:31.000Z,0
2023-01-09T21:09:10.761Z,0
2023-01-09T21:10:50.534Z,0
2023-01-09T21:12:30.307Z,0
2023-01-09T21:14:10.074Z,0
2023-01-09T21:15:49.897Z,0
2023-01-09T21:17:29.610Z,0
2023-01-09T21:19:09.370Z,0
2023-01-09T21:20:49.122Z,0
2023-01-09T21:22:28.899Z,0
2023-01-09T21:24:08.661Z,0
2023-01-09T21:25:48.474Z,0
2023-01-09T21:27:28.209Z,0
2023-01-09T21:29:07.977Z,0
2023-01-09T21:30:47.747Z,0
2023-01-09T21:32:27.507Z,0
2023-01-09T21:34:07.295Z,0
2023-01-09T21:35:47.052Z,0
2023-01-09T21:37:26.799Z,0
2023-01-09T21:39:06.566Z,0
2023-01-09T21:40:46.337Z,0
2023-01-09T21:42:26.106Z,0
2023-01-09T21:44:05.869Z,0
2023-01-09T21:45:45.648Z,0
2023-01-09T21:47:25.404Z,0
2023-01-09T21:49:05.183Z,0
2023-01-09T21:50:44.938Z,0
2023-01-09T21:52:24.732Z,0
2023-01-09T21:54:04.477Z,0
2023-01-09T21:55:44.244Z,0
2023-01-09T21:57:24.010Z,0
2023-01-09T21:59:03.792Z,0
2023-01-09T22:00:43.551Z,0
2023-01-09T22:02:23.292Z,0
2023-01-09T22:04:03.085Z,0
2023-01-09T22:05:42.855Z,0
2023-01-09T22:07:22.630Z,0
2023-01-09T22:09:02.379Z,0
2023-01-09T22:10:42.158Z,0
2023-01-09T22:12:21.933Z,0
2023-01-09T22:14:01.685Z,0
2023-01-09T22:15:41.455Z,0
2023-01-09T22:17:21.242Z,0
2023-01-09T22:19:00.980Z,0
2023-01-09T22:20:40.766Z,0
2023-01-09T22:22:20.520Z,0
2023-01-09T22:24:00.295Z,0
2023-01-09T22:25:40.057Z,0
2023-01-09T22:27:19.815Z,0
2023-01-09T22:28:59.592Z,0
2023-01-09T22:30:39.363Z,0
2023-01-09T22:32:19.139Z,0
2023-01-09T22:33:58.899Z,0
2023-01-09T22:35:38.665Z,0
2023-01-09T22:37:18.420Z,0
2023-01-09T22:38:58.206Z,0
2023-01-09T22:40:37.954Z,0
2023-01-09T22:42:17.726Z,0
2023-01-09T22:43:57.493Z,0
2023-01-09T22:45:37.273Z,0
2023-01-09T22:47:17.035Z,0
2023-01-09T22:48:56.809Z,0
2023-01-09T22:50:36.572Z,0
2023-01-09T22:52:16.332Z,0
2023-01-09T22:53:56.183Z,0
2023-01-09T22:55:35.879Z,0
2023-01-09T22:57:15.675Z,0
2023-01-09T22:58:55.422Z,0
2023-01-09T23:00:35.162Z,0
2023-01-09T23:02:14.941Z,0
2023-01-09T23:03:54.705Z,0
2023-01-09T23:05:34.496Z,0
2023-01-09T23:07:14.229Z,0
2023-01-09T23:08:54.033Z,0
2023-01-09T23:10:33.782Z,0
2023-01-09T23:12:13.532Z,0
2023-01-09T23:13:53.314Z,0
2023-01-09T23:15:33.068Z,0
2023-01-09T23:17:12.835Z,0
2023-01-09T23:18:52.612Z,0
2023-01-09T23:20:32.389Z,0
2023-01-09T23:22:12.153Z,0
2023-01-09T23:23:51.906Z,0
2023-01-09T23:25:31.689Z,0
2023-01-09T23:27:11.445Z,0
2023-01-09T23:28:51.204Z,0
2023-01-09T23:30:30.977Z,0
2023-01-09T23:32:10.754Z,0
2023-01-09T23:33:50.529Z,0
2023-01-09T23:35:30.356Z,0
2023-01-09T23:37:10.063Z,0
2023-01-09T23:38:49.823Z,0
2023-01-09T23:40:29.579Z,0
2023-01-09T23:42:09.354Z,0
2023-01-09T23:43:49.126Z,0
2023-01-09T23:45:28.884Z,0
2023-01-09T23:47:08.657Z,0
2023-01-09T23:48:48.417Z,0
2023-01-09T23:50:28.188Z,0
2023-01-09T23:52:07.941Z,0
2023-01-09T23:53:47.707Z,0
2023-01-09T23:55:27.515Z,0
2023-01-09T23:57:07.239Z,0
2023-01-09T23:58:47.024Z,0
